sensor_id;sensor_type;location;lat;lon;timestamp;P1;durP1;ratioP1;P2;durP2;ratioP2
81176;SDS011;74095;48.270;14.200;2024-02-16T00:00:19;9.85;;;6.95;;
81176;SDS011;74095;48.270;14.200;2024-02-16T00:02:44;9.70;;;7.15;;
81176;SDS011;74095;48.270;14.200;2024-02-16T00:05:11;12.35;;;8.23;;
81176;SDS011;74095;48.270;14.200;2024-02-16T00:07:38;11.95;;;7.95;;
81176;SDS011;74095;48.270;14.200;2024-02-16T00:10:05;11.88;;;8.48;;
81176;SDS011;74095;48.270;14.200;2024-02-16T00:12:32;13.20;;;8.25;;
81176;SDS011;74095;48.270;14.200;2024-02-16T00:14:59;14.23;;;8.90;;
81176;SDS011;74095;48.270;14.200;2024-02-16T00:17:25;13.50;;;8.57;;
81176;SDS011;74095;48.270;14.200;2024-02-16T00:19:55;14.27;;;9.43;;
81176;SDS011;74095;48.270;14.200;2024-02-16T00:22:21;14.10;;;9.82;;
81176;SDS011;74095;48.270;14.200;2024-02-16T00:24:47;11.30;;;7.07;;
81176;SDS011;74095;48.270;14.200;2024-02-16T00:27:15;15.18;;;9.82;;
81176;SDS011;74095;48.270;14.200;2024-02-16T00:29:42;22.60;;;7.35;;
81176;SDS011;74095;48.270;14.200;2024-02-16T00:32:08;14.98;;;10.52;;
81176;SDS011;74095;48.270;14.200;2024-02-16T00:34:35;15.30;;;11.32;;
81176;SDS011;74095;48.270;14.200;2024-02-16T00:37:02;16.83;;;11.15;;
81176;SDS011;74095;48.270;14.200;2024-02-16T00:39:30;17.45;;;10.30;;
81176;SDS011;74095;48.270;14.200;2024-02-16T00:41:56;14.15;;;9.95;;
81176;SDS011;74095;48.270;14.200;2024-02-16T00:44:22;14.10;;;10.00;;
81176;SDS011;74095;48.270;14.200;2024-02-16T00:46:48;14.88;;;10.00;;
81176;SDS011;74095;48.270;14.200;2024-02-16T00:49:14;15.55;;;10.23;;
81176;SDS011;74095;48.270;14.200;2024-02-16T00:51:40;14.00;;;9.75;;
81176;SDS011;74095;48.270;14.200;2024-02-16T00:54:06;15.35;;;9.55;;
81176;SDS011;74095;48.270;14.200;2024-02-16T00:56:32;15.07;;;9.98;;
81176;SDS011;74095;48.270;14.200;2024-02-16T00:58:58;13.75;;;9.27;;
81176;SDS011;74095;48.270;14.200;2024-02-16T01:01:24;13.93;;;10.05;;
81176;SDS011;74095;48.270;14.200;2024-02-16T01:03:52;13.75;;;8.27;;
81176;SDS011;74095;48.270;14.200;2024-02-16T01:06:18;15.65;;;10.00;;
81176;SDS011;74095;48.270;14.200;2024-02-16T01:08:44;15.02;;;10.50;;
81176;SDS011;74095;48.270;14.200;2024-02-16T01:11:12;16.80;;;11.50;;
81176;SDS011;74095;48.270;14.200;2024-02-16T01:13:41;14.40;;;10.27;;
81176;SDS011;74095;48.270;14.200;2024-02-16T01:16:08;15.23;;;9.93;;
81176;SDS011;74095;48.270;14.200;2024-02-16T01:18:35;17.02;;;10.98;;
81176;SDS011;74095;48.270;14.200;2024-02-16T01:21:03;14.35;;;9.52;;
81176;SDS011;74095;48.270;14.200;2024-02-16T01:23:29;13.13;;;8.55;;
81176;SDS011;74095;48.270;14.200;2024-02-16T01:25:55;13.82;;;8.98;;
81176;SDS011;74095;48.270;14.200;2024-02-16T01:28:21;19.75;;;12.35;;
81176;SDS011;74095;48.270;14.200;2024-02-16T01:30:49;19.75;;;11.63;;
81176;SDS011;74095;48.270;14.200;2024-02-16T01:33:16;14.90;;;9.50;;
81176;SDS011;74095;48.270;14.200;2024-02-16T01:35:42;14.52;;;9.43;;
81176;SDS011;74095;48.270;14.200;2024-02-16T01:38:08;12.10;;;8.32;;
81176;SDS011;74095;48.270;14.200;2024-02-16T01:40:34;15.65;;;9.90;;
81176;SDS011;74095;48.270;14.200;2024-02-16T01:42:59;17.58;;;11.50;;
81176;SDS011;74095;48.270;14.200;2024-02-16T01:45:25;17.92;;;10.43;;
81176;SDS011;74095;48.270;14.200;2024-02-16T01:47:51;20.98;;;14.98;;
81176;SDS011;74095;48.270;14.200;2024-02-16T01:50:19;23.25;;;13.68;;
81176;SDS011;74095;48.270;14.200;2024-02-16T01:52:46;20.23;;;12.32;;
81176;SDS011;74095;48.270;14.200;2024-02-16T01:55:12;21.15;;;13.75;;
81176;SDS011;74095;48.270;14.200;2024-02-16T01:57:40;20.40;;;13.63;;
81176;SDS011;74095;48.270;14.200;2024-02-16T02:00:08;25.73;;;15.07;;
81176;SDS011;74095;48.270;14.200;2024-02-16T02:02:35;20.98;;;12.93;;
81176;SDS011;74095;48.270;14.200;2024-02-16T02:05:01;23.45;;;13.65;;
81176;SDS011;74095;48.270;14.200;2024-02-16T02:07:28;19.90;;;12.95;;
81176;SDS011;74095;48.270;14.200;2024-02-16T02:09:54;21.63;;;13.63;;
81176;SDS011;74095;48.270;14.200;2024-02-16T02:12:20;24.50;;;16.27;;
81176;SDS011;74095;48.270;14.200;2024-02-16T02:14:48;23.58;;;13.48;;
81176;SDS011;74095;48.270;14.200;2024-02-16T02:17:14;23.95;;;15.20;;
81176;SDS011;74095;48.270;14.200;2024-02-16T02:19:41;23.20;;;14.70;;
81176;SDS011;74095;48.270;14.200;2024-02-16T02:22:12;21.27;;;12.75;;
81176;SDS011;74095;48.270;14.200;2024-02-16T02:24:43;24.17;;;14.85;;
81176;SDS011;74095;48.270;14.200;2024-02-16T02:27:10;26.13;;;16.17;;
81176;SDS011;74095;48.270;14.200;2024-02-16T02:29:36;23.27;;;14.43;;
81176;SDS011;74095;48.270;14.200;2024-02-16T02:32:02;23.25;;;11.55;;
81176;SDS011;74095;48.270;14.200;2024-02-16T02:34:28;22.33;;;15.20;;
81176;SDS011;74095;48.270;14.200;2024-02-16T02:36:53;17.45;;;10.93;;
81176;SDS011;74095;48.270;14.200;2024-02-16T02:39:19;26.45;;;17.15;;
81176;SDS011;74095;48.270;14.200;2024-02-16T02:41:45;28.10;;;16.33;;
81176;SDS011;74095;48.270;14.200;2024-02-16T02:44:11;17.38;;;11.10;;
81176;SDS011;74095;48.270;14.200;2024-02-16T02:46:37;23.48;;;13.00;;
81176;SDS011;74095;48.270;14.200;2024-02-16T02:49:03;29.10;;;17.65;;
81176;SDS011;74095;48.270;14.200;2024-02-16T02:51:29;35.15;;;20.75;;
81176;SDS011;74095;48.270;14.200;2024-02-16T02:53:55;32.25;;;19.17;;
81176;SDS011;74095;48.270;14.200;2024-02-16T02:56:21;34.50;;;21.05;;
81176;SDS011;74095;48.270;14.200;2024-02-16T02:58:47;36.65;;;20.58;;
81176;SDS011;74095;48.270;14.200;2024-02-16T03:01:14;30.13;;;16.63;;
81176;SDS011;74095;48.270;14.200;2024-02-16T03:03:47;28.10;;;16.75;;
81176;SDS011;74095;48.270;14.200;2024-02-16T03:06:20;32.92;;;18.95;;
81176;SDS011;74095;48.270;14.200;2024-02-16T03:08:51;38.55;;;21.10;;
81176;SDS011;74095;48.270;14.200;2024-02-16T03:11:23;35.47;;;21.33;;
81176;SDS011;74095;48.270;14.200;2024-02-16T03:13:50;33.95;;;18.98;;
81176;SDS011;74095;48.270;14.200;2024-02-16T03:16:18;30.27;;;16.70;;
81176;SDS011;74095;48.270;14.200;2024-02-16T03:18:46;23.92;;;13.85;;
81176;SDS011;74095;48.270;14.200;2024-02-16T03:21:15;31.00;;;19.05;;
81176;SDS011;74095;48.270;14.200;2024-02-16T03:23:44;40.55;;;23.42;;
81176;SDS011;74095;48.270;14.200;2024-02-16T03:26:18;34.17;;;19.35;;
81176;SDS011;74095;48.270;14.200;2024-02-16T03:28:47;35.40;;;21.00;;
81176;SDS011;74095;48.270;14.200;2024-02-16T03:31:20;30.77;;;18.15;;
81176;SDS011;74095;48.270;14.200;2024-02-16T03:33:50;35.95;;;21.10;;
81176;SDS011;74095;48.270;14.200;2024-02-16T03:36:19;35.95;;;17.65;;
81176;SDS011;74095;48.270;14.200;2024-02-16T03:38:50;38.70;;;22.83;;
81176;SDS011;74095;48.270;14.200;2024-02-16T03:41:20;28.50;;;14.48;;
81176;SDS011;74095;48.270;14.200;2024-02-16T03:43:51;38.05;;;23.10;;
81176;SDS011;74095;48.270;14.200;2024-02-16T03:46:21;36.55;;;19.25;;
81176;SDS011;74095;48.270;14.200;2024-02-16T03:48:51;33.97;;;19.17;;
81176;SDS011;74095;48.270;14.200;2024-02-16T03:51:22;41.60;;;22.75;;
81176;SDS011;74095;48.270;14.200;2024-02-16T03:53:51;42.95;;;24.05;;
81176;SDS011;74095;48.270;14.200;2024-02-16T03:56:21;44.92;;;23.90;;
81176;SDS011;74095;48.270;14.200;2024-02-16T03:58:51;33.20;;;17.63;;
81176;SDS011;74095;48.270;14.200;2024-02-16T04:01:20;43.22;;;24.85;;
81176;SDS011;74095;48.270;14.200;2024-02-16T04:03:49;37.00;;;20.73;;
81176;SDS011;74095;48.270;14.200;2024-02-16T04:06:20;41.05;;;23.40;;
81176;SDS011;74095;48.270;14.200;2024-02-16T04:08:50;35.35;;;20.38;;
81176;SDS011;74095;48.270;14.200;2024-02-16T04:11:22;38.58;;;19.75;;
81176;SDS011;74095;48.270;14.200;2024-02-16T04:13:56;32.10;;;17.05;;
81176;SDS011;74095;48.270;14.200;2024-02-16T04:16:29;40.20;;;22.13;;
81176;SDS011;74095;48.270;14.200;2024-02-16T04:19:01;41.75;;;23.55;;
81176;SDS011;74095;48.270;14.200;2024-02-16T04:21:33;47.55;;;26.52;;
81176;SDS011;74095;48.270;14.200;2024-02-16T04:24:04;40.85;;;21.42;;
81176;SDS011;74095;48.270;14.200;2024-02-16T04:26:37;40.47;;;21.88;;
81176;SDS011;74095;48.270;14.200;2024-02-16T04:29:06;49.15;;;26.30;;
81176;SDS011;74095;48.270;14.200;2024-02-16T04:31:36;45.25;;;26.77;;
81176;SDS011;74095;48.270;14.200;2024-02-16T04:34:13;44.22;;;24.08;;
81176;SDS011;74095;48.270;14.200;2024-02-16T04:39:10;49.80;;;27.25;;
81176;SDS011;74095;48.270;14.200;2024-02-16T04:41:42;29.90;;;16.15;;
81176;SDS011;74095;48.270;14.200;2024-02-16T04:44:12;27.73;;;14.68;;
81176;SDS011;74095;48.270;14.200;2024-02-16T04:46:40;36.63;;;20.08;;
81176;SDS011;74095;48.270;14.200;2024-02-16T04:49:10;38.17;;;22.20;;
81176;SDS011;74095;48.270;14.200;2024-02-16T04:51:39;41.65;;;23.10;;
81176;SDS011;74095;48.270;14.200;2024-02-16T04:54:08;40.45;;;22.67;;
81176;SDS011;74095;48.270;14.200;2024-02-16T04:56:38;42.75;;;26.08;;
81176;SDS011;74095;48.270;14.200;2024-02-16T04:59:07;42.35;;;23.33;;
81176;SDS011;74095;48.270;14.200;2024-02-16T05:01:38;36.13;;;21.00;;
81176;SDS011;74095;48.270;14.200;2024-02-16T05:04:09;36.20;;;20.98;;
81176;SDS011;74095;48.270;14.200;2024-02-16T05:06:44;42.42;;;25.92;;
81176;SDS011;74095;48.270;14.200;2024-02-16T05:11:46;39.95;;;19.60;;
81176;SDS011;74095;48.270;14.200;2024-02-16T05:14:20;37.38;;;19.65;;
81176;SDS011;74095;48.270;14.200;2024-02-16T05:16:53;45.15;;;25.42;;
81176;SDS011;74095;48.270;14.200;2024-02-16T05:19:23;41.03;;;23.63;;
81176;SDS011;74095;48.270;14.200;2024-02-16T05:21:52;42.50;;;23.25;;
81176;SDS011;74095;48.270;14.200;2024-02-16T05:24:25;46.85;;;26.27;;
81176;SDS011;74095;48.270;14.200;2024-02-16T05:26:55;51.22;;;26.63;;
81176;SDS011;74095;48.270;14.200;2024-02-16T05:29:26;59.15;;;30.67;;
81176;SDS011;74095;48.270;14.200;2024-02-16T05:31:56;34.63;;;19.45;;
81176;SDS011;74095;48.270;14.200;2024-02-16T05:34:25;58.97;;;29.17;;
81176;SDS011;74095;48.270;14.200;2024-02-16T05:36:58;59.88;;;28.05;;
81176;SDS011;74095;48.270;14.200;2024-02-16T05:39:29;36.75;;;18.70;;
81176;SDS011;74095;48.270;14.200;2024-02-16T05:42:03;56.30;;;21.63;;
81176;SDS011;74095;48.270;14.200;2024-02-16T05:44:36;83.30;;;30.10;;
81176;SDS011;74095;48.270;14.200;2024-02-16T05:47:07;89.93;;;31.35;;
81176;SDS011;74095;48.270;14.200;2024-02-16T05:49:36;61.03;;;21.65;;
81176;SDS011;74095;48.270;14.200;2024-02-16T05:52:07;652.38;;;76.35;;
81176;SDS011;74095;48.270;14.200;2024-02-16T05:57:17;481.88;;;55.83;;
81176;SDS011;74095;48.270;14.200;2024-02-16T05:59:47;385.55;;;48.95;;
81176;SDS011;74095;48.270;14.200;2024-02-16T06:02:20;320.10;;;45.33;;
81176;SDS011;74095;48.270;14.200;2024-02-16T06:04:53;243.90;;;41.70;;
81176;SDS011;74095;48.270;14.200;2024-02-16T06:07:27;357.85;;;45.20;;
81176;SDS011;74095;48.270;14.200;2024-02-16T06:09:56;528.63;;;59.72;;
81176;SDS011;74095;48.270;14.200;2024-02-16T06:12:25;162.00;;;33.03;;
81176;SDS011;74095;48.270;14.200;2024-02-16T06:14:58;260.75;;;41.42;;
81176;SDS011;74095;48.270;14.200;2024-02-16T06:17:30;774.38;;;80.20;;
81176;SDS011;74095;48.270;14.200;2024-02-16T06:19:59;436.27;;;47.63;;
81176;SDS011;74095;48.270;14.200;2024-02-16T06:22:30;642.67;;;66.28;;
81176;SDS011;74095;48.270;14.200;2024-02-16T06:25:01;382.80;;;47.40;;
81176;SDS011;74095;48.270;14.200;2024-02-16T06:27:30;159.27;;;29.25;;
81176;SDS011;74095;48.270;14.200;2024-02-16T06:30:02;840.95;;;94.28;;
81176;SDS011;74095;48.270;14.200;2024-02-16T06:32:40;575.50;;;67.40;;
81176;SDS011;74095;48.270;14.200;2024-02-16T06:35:11;472.20;;;54.75;;
81176;SDS011;74095;48.270;14.200;2024-02-16T06:37:42;532.72;;;66.68;;
81176;SDS011;74095;48.270;14.200;2024-02-16T06:40:12;646.03;;;71.47;;
81176;SDS011;74095;48.270;14.200;2024-02-16T06:42:41;378.02;;;54.42;;
81176;SDS011;74095;48.270;14.200;2024-02-16T06:45:11;578.20;;;65.00;;
81176;SDS011;74095;48.270;14.200;2024-02-16T06:47:41;570.75;;;70.53;;
81176;SDS011;74095;48.270;14.200;2024-02-16T06:50:09;420.95;;;57.97;;
81176;SDS011;74095;48.270;14.200;2024-02-16T06:52:37;891.05;;;112.57;;
81176;SDS011;74095;48.270;14.200;2024-02-16T06:55:07;346.92;;;46.67;;
81176;SDS011;74095;48.270;14.200;2024-02-16T06:57:38;180.25;;;40.85;;
81176;SDS011;74095;48.270;14.200;2024-02-16T07:00:08;399.63;;;58.47;;
81176;SDS011;74095;48.270;14.200;2024-02-16T07:02:38;795.22;;;83.93;;
81176;SDS011;74095;48.270;14.200;2024-02-16T07:05:07;474.10;;;62.00;;
81176;SDS011;74095;48.270;14.200;2024-02-16T07:07:38;443.45;;;65.18;;
81176;SDS011;74095;48.270;14.200;2024-02-16T07:10:07;491.02;;;60.13;;
81176;SDS011;74095;48.270;14.200;2024-02-16T07:12:40;275.30;;;47.25;;
81176;SDS011;74095;48.270;14.200;2024-02-16T07:15:11;629.10;;;80.28;;
81176;SDS011;74095;48.270;14.200;2024-02-16T07:17:40;417.48;;;56.22;;
81176;SDS011;74095;48.270;14.200;2024-02-16T07:20:08;1060.03;;;125.88;;
81176;SDS011;74095;48.270;14.200;2024-02-16T07:22:37;417.85;;;59.63;;
81176;SDS011;74095;48.270;14.200;2024-02-16T07:25:06;525.97;;;61.53;;
81176;SDS011;74095;48.270;14.200;2024-02-16T07:27:37;684.30;;;87.72;;
81176;SDS011;74095;48.270;14.200;2024-02-16T07:30:06;139.13;;;34.85;;
81176;SDS011;74095;48.270;14.200;2024-02-16T07:32:38;232.85;;;40.75;;
81176;SDS011;74095;48.270;14.200;2024-02-16T07:35:12;355.38;;;60.80;;
81176;SDS011;74095;48.270;14.200;2024-02-16T07:37:42;580.85;;;72.88;;
81176;SDS011;74095;48.270;14.200;2024-02-16T07:40:11;264.63;;;50.58;;
81176;SDS011;74095;48.270;14.200;2024-02-16T07:42:42;801.80;;;91.40;;
81176;SDS011;74095;48.270;14.200;2024-02-16T07:45:14;555.47;;;74.38;;
81176;SDS011;74095;48.270;14.200;2024-02-16T07:47:47;887.97;;;113.03;;
81176;SDS011;74095;48.270;14.200;2024-02-16T07:50:23;321.77;;;47.58;;
81176;SDS011;74095;48.270;14.200;2024-02-16T07:52:49;307.95;;;48.03;;
81176;SDS011;74095;48.270;14.200;2024-02-16T07:55:16;82.40;;;24.55;;
81176;SDS011;74095;48.270;14.200;2024-02-16T07:57:46;387.85;;;57.40;;
81176;SDS011;74095;48.270;14.200;2024-02-16T08:00:12;687.33;;;85.22;;
81176;SDS011;74095;48.270;14.200;2024-02-16T08:02:41;480.48;;;61.05;;
81176;SDS011;74095;48.270;14.200;2024-02-16T08:05:10;342.17;;;51.95;;
81176;SDS011;74095;48.270;14.200;2024-02-16T08:07:40;588.22;;;72.00;;
81176;SDS011;74095;48.270;14.200;2024-02-16T08:10:08;587.00;;;72.90;;
81176;SDS011;74095;48.270;14.200;2024-02-16T08:12:34;473.40;;;62.90;;
81176;SDS011;74095;48.270;14.200;2024-02-16T08:15:02;385.15;;;54.05;;
81176;SDS011;74095;48.270;14.200;2024-02-16T08:17:29;424.85;;;63.47;;
81176;SDS011;74095;48.270;14.200;2024-02-16T08:19:56;322.67;;;53.40;;
81176;SDS011;74095;48.270;14.200;2024-02-16T08:22:22;274.45;;;46.03;;
81176;SDS011;74095;48.270;14.200;2024-02-16T08:24:48;298.42;;;49.53;;
81176;SDS011;74095;48.270;14.200;2024-02-16T08:27:15;132.75;;;31.30;;
81176;SDS011;74095;48.270;14.200;2024-02-16T08:29:42;121.63;;;33.58;;
81176;SDS011;74095;48.270;14.200;2024-02-16T08:32:08;145.93;;;32.05;;
81176;SDS011;74095;48.270;14.200;2024-02-16T08:34:35;108.75;;;30.88;;
81176;SDS011;74095;48.270;14.200;2024-02-16T08:37:03;122.35;;;34.40;;
81176;SDS011;74095;48.270;14.200;2024-02-16T08:39:30;94.78;;;34.17;;
81176;SDS011;74095;48.270;14.200;2024-02-16T08:41:57;117.25;;;38.58;;
81176;SDS011;74095;48.270;14.200;2024-02-16T08:44:25;120.18;;;36.67;;
81176;SDS011;74095;48.270;14.200;2024-02-16T08:46:52;113.35;;;39.08;;
81176;SDS011;74095;48.270;14.200;2024-02-16T08:49:19;106.00;;;40.25;;
81176;SDS011;74095;48.270;14.200;2024-02-16T08:51:45;68.18;;;23.90;;
81176;SDS011;74095;48.270;14.200;2024-02-16T08:54:12;91.50;;;32.78;;
81176;SDS011;74095;48.270;14.200;2024-02-16T08:56:38;93.55;;;35.17;;
81176;SDS011;74095;48.270;14.200;2024-02-16T08:59:05;109.03;;;36.33;;
81176;SDS011;74095;48.270;14.200;2024-02-16T09:03:58;102.43;;;33.55;;
81176;SDS011;74095;48.270;14.200;2024-02-16T09:06:24;176.40;;;37.78;;
81176;SDS011;74095;48.270;14.200;2024-02-16T09:08:50;174.93;;;35.97;;
81176;SDS011;74095;48.270;14.200;2024-02-16T09:11:16;78.25;;;29.58;;
81176;SDS011;74095;48.270;14.200;2024-02-16T09:13:42;95.07;;;30.23;;
81176;SDS011;74095;48.270;14.200;2024-02-16T09:16:09;69.15;;;27.60;;
81176;SDS011;74095;48.270;14.200;2024-02-16T09:18:35;58.40;;;24.45;;
81176;SDS011;74095;48.270;14.200;2024-02-16T09:21:03;74.93;;;30.48;;
81176;SDS011;74095;48.270;14.200;2024-02-16T09:23:29;58.53;;;25.80;;
81176;SDS011;74095;48.270;14.200;2024-02-16T09:25:56;63.25;;;34.25;;
81176;SDS011;74095;48.270;14.200;2024-02-16T09:28:22;55.90;;;27.58;;
81176;SDS011;74095;48.270;14.200;2024-02-16T09:30:48;57.05;;;27.00;;
81176;SDS011;74095;48.270;14.200;2024-02-16T09:33:14;52.70;;;25.65;;
81176;SDS011;74095;48.270;14.200;2024-02-16T09:35:40;46.67;;;23.40;;
81176;SDS011;74095;48.270;14.200;2024-02-16T09:38:06;45.83;;;21.27;;
81176;SDS011;74095;48.270;14.200;2024-02-16T09:40:32;54.25;;;26.20;;
81176;SDS011;74095;48.270;14.200;2024-02-16T09:42:58;56.40;;;27.75;;
81176;SDS011;74095;48.270;14.200;2024-02-16T09:45:24;43.15;;;20.20;;
81176;SDS011;74095;48.270;14.200;2024-02-16T09:47:52;48.92;;;19.55;;
81176;SDS011;74095;48.270;14.200;2024-02-16T09:50:20;49.38;;;24.55;;
81176;SDS011;74095;48.270;14.200;2024-02-16T09:52:47;43.47;;;23.88;;
81176;SDS011;74095;48.270;14.200;2024-02-16T09:55:15;39.88;;;20.60;;
81176;SDS011;74095;48.270;14.200;2024-02-16T09:57:45;39.17;;;20.80;;
81176;SDS011;74095;48.270;14.200;2024-02-16T10:00:12;39.95;;;21.50;;
81176;SDS011;74095;48.270;14.200;2024-02-16T10:02:39;37.13;;;20.23;;
81176;SDS011;74095;48.270;14.200;2024-02-16T10:05:11;32.95;;;16.92;;
81176;SDS011;74095;48.270;14.200;2024-02-16T10:07:41;34.65;;;17.98;;
81176;SDS011;74095;48.270;14.200;2024-02-16T10:10:23;33.53;;;17.98;;
81176;SDS011;74095;48.270;14.200;2024-02-16T10:12:50;33.25;;;18.23;;
81176;SDS011;74095;48.270;14.200;2024-02-16T10:15:26;35.58;;;19.42;;
81176;SDS011;74095;48.270;14.200;2024-02-16T10:18:00;35.50;;;20.58;;
81176;SDS011;74095;48.270;14.200;2024-02-16T10:20:35;35.58;;;20.02;;
81176;SDS011;74095;48.270;14.200;2024-02-16T10:25:30;30.67;;;19.20;;
81176;SDS011;74095;48.270;14.200;2024-02-16T10:27:56;30.65;;;18.50;;
81176;SDS011;74095;48.270;14.200;2024-02-16T10:30:30;30.35;;;19.10;;
81176;SDS011;74095;48.270;14.200;2024-02-16T10:32:57;27.20;;;17.23;;
81176;SDS011;74095;48.270;14.200;2024-02-16T10:35:25;29.45;;;19.60;;
81176;SDS011;74095;48.270;14.200;2024-02-16T10:37:52;28.30;;;18.85;;
81176;SDS011;74095;48.270;14.200;2024-02-16T10:40:19;30.30;;;17.65;;
81176;SDS011;74095;48.270;14.200;2024-02-16T10:42:46;30.83;;;18.00;;
81176;SDS011;74095;48.270;14.200;2024-02-16T10:45:12;28.45;;;18.15;;
81176;SDS011;74095;48.270;14.200;2024-02-16T10:47:41;27.75;;;18.48;;
81176;SDS011;74095;48.270;14.200;2024-02-16T10:50:07;25.08;;;16.23;;
81176;SDS011;74095;48.270;14.200;2024-02-16T10:52:35;27.42;;;19.15;;
81176;SDS011;74095;48.270;14.200;2024-02-16T10:55:03;28.05;;;19.85;;
81176;SDS011;74095;48.270;14.200;2024-02-16T10:57:31;27.75;;;19.15;;
81176;SDS011;74095;48.270;14.200;2024-02-16T10:59:58;27.90;;;20.48;;
81176;SDS011;74095;48.270;14.200;2024-02-16T11:02:25;24.48;;;17.00;;
81176;SDS011;74095;48.270;14.200;2024-02-16T11:04:51;26.55;;;18.20;;
81176;SDS011;74095;48.270;14.200;2024-02-16T11:07:19;24.25;;;17.92;;
81176;SDS011;74095;48.270;14.200;2024-02-16T11:09:46;25.98;;;19.25;;
81176;SDS011;74095;48.270;14.200;2024-02-16T11:12:12;25.45;;;17.70;;
81176;SDS011;74095;48.270;14.200;2024-02-16T11:14:41;25.95;;;18.45;;
81176;SDS011;74095;48.270;14.200;2024-02-16T11:19:45;23.30;;;17.17;;
81176;SDS011;74095;48.270;14.200;2024-02-16T11:22:15;28.65;;;18.75;;
81176;SDS011;74095;48.270;14.200;2024-02-16T11:24:44;22.45;;;14.63;;
81176;SDS011;74095;48.270;14.200;2024-02-16T11:27:14;25.13;;;15.50;;
81176;SDS011;74095;48.270;14.200;2024-02-16T11:29:44;35.78;;;19.90;;
81176;SDS011;74095;48.270;14.200;2024-02-16T11:32:11;38.50;;;16.92;;
81176;SDS011;74095;48.270;14.200;2024-02-16T11:34:37;40.90;;;18.77;;
81176;SDS011;74095;48.270;14.200;2024-02-16T11:37:06;37.58;;;17.85;;
81176;SDS011;74095;48.270;14.200;2024-02-16T11:39:32;37.05;;;19.08;;
81176;SDS011;74095;48.270;14.200;2024-02-16T11:42:09;41.63;;;21.33;;
81176;SDS011;74095;48.270;14.200;2024-02-16T11:44:37;38.33;;;16.63;;
81176;SDS011;74095;48.270;14.200;2024-02-16T11:47:08;34.92;;;16.85;;
81176;SDS011;74095;48.270;14.200;2024-02-16T11:49:42;44.10;;;20.70;;
81176;SDS011;74095;48.270;14.200;2024-02-16T11:52:08;39.92;;;21.75;;
81176;SDS011;74095;48.270;14.200;2024-02-16T11:54:34;40.42;;;20.33;;
81176;SDS011;74095;48.270;14.200;2024-02-16T11:57:03;45.00;;;19.83;;
81176;SDS011;74095;48.270;14.200;2024-02-16T11:59:29;45.92;;;21.48;;
81176;SDS011;74095;48.270;14.200;2024-02-16T12:01:57;40.67;;;18.77;;
81176;SDS011;74095;48.270;14.200;2024-02-16T12:04:28;42.40;;;19.38;;
81176;SDS011;74095;48.270;14.200;2024-02-16T12:07:02;39.95;;;17.88;;
81176;SDS011;74095;48.270;14.200;2024-02-16T12:09:28;40.97;;;19.42;;
81176;SDS011;74095;48.270;14.200;2024-02-16T12:11:55;46.17;;;20.65;;
81176;SDS011;74095;48.270;14.200;2024-02-16T12:14:21;40.47;;;19.10;;
81176;SDS011;74095;48.270;14.200;2024-02-16T12:16:48;43.25;;;21.05;;
81176;SDS011;74095;48.270;14.200;2024-02-16T12:19:15;37.97;;;20.48;;
81176;SDS011;74095;48.270;14.200;2024-02-16T12:21:43;39.03;;;19.75;;
81176;SDS011;74095;48.270;14.200;2024-02-16T12:24:09;38.80;;;20.88;;
81176;SDS011;74095;48.270;14.200;2024-02-16T12:26:36;39.80;;;21.77;;
81176;SDS011;74095;48.270;14.200;2024-02-16T12:29:02;39.60;;;20.90;;
81176;SDS011;74095;48.270;14.200;2024-02-16T12:31:29;43.45;;;23.73;;
81176;SDS011;74095;48.270;14.200;2024-02-16T12:33:55;36.50;;;20.98;;
81176;SDS011;74095;48.270;14.200;2024-02-16T12:36:21;37.22;;;21.95;;
81176;SDS011;74095;48.270;14.200;2024-02-16T12:38:49;35.38;;;20.70;;
81176;SDS011;74095;48.270;14.200;2024-02-16T12:41:15;43.50;;;23.65;;
81176;SDS011;74095;48.270;14.200;2024-02-16T12:43:41;38.25;;;22.02;;
81176;SDS011;74095;48.270;14.200;2024-02-16T12:46:07;39.30;;;22.10;;
81176;SDS011;74095;48.270;14.200;2024-02-16T12:48:33;36.28;;;21.02;;
81176;SDS011;74095;48.270;14.200;2024-02-16T12:50:59;34.25;;;22.63;;
81176;SDS011;74095;48.270;14.200;2024-02-16T12:53:25;37.38;;;22.42;;
81176;SDS011;74095;48.270;14.200;2024-02-16T12:55:51;36.20;;;20.98;;
81176;SDS011;74095;48.270;14.200;2024-02-16T12:58:17;37.00;;;23.20;;
81176;SDS011;74095;48.270;14.200;2024-02-16T13:00:43;33.25;;;20.00;;
81176;SDS011;74095;48.270;14.200;2024-02-16T13:03:08;32.75;;;21.02;;
81176;SDS011;74095;48.270;14.200;2024-02-16T13:05:34;30.58;;;19.80;;
81176;SDS011;74095;48.270;14.200;2024-02-16T13:08:00;35.35;;;21.10;;
81176;SDS011;74095;48.270;14.200;2024-02-16T13:10:26;35.47;;;21.70;;
81176;SDS011;74095;48.270;14.200;2024-02-16T13:12:52;34.97;;;21.60;;
81176;SDS011;74095;48.270;14.200;2024-02-16T13:15:18;33.20;;;22.48;;
81176;SDS011;74095;48.270;14.200;2024-02-16T13:17:44;32.10;;;20.63;;
81176;SDS011;74095;48.270;14.200;2024-02-16T13:20:10;32.53;;;20.77;;
81176;SDS011;74095;48.270;14.200;2024-02-16T13:22:36;29.02;;;16.58;;
81176;SDS011;74095;48.270;14.200;2024-02-16T13:25:05;30.92;;;19.92;;
81176;SDS011;74095;48.270;14.200;2024-02-16T13:27:32;34.40;;;21.02;;
81176;SDS011;74095;48.270;14.200;2024-02-16T13:29:59;29.27;;;17.95;;
81176;SDS011;74095;48.270;14.200;2024-02-16T13:32:26;29.08;;;17.08;;
81176;SDS011;74095;48.270;14.200;2024-02-16T13:34:52;30.40;;;18.55;;
81176;SDS011;74095;48.270;14.200;2024-02-16T13:37:18;30.42;;;19.92;;
81176;SDS011;74095;48.270;14.200;2024-02-16T13:39:44;27.27;;;18.95;;
81176;SDS011;74095;48.270;14.200;2024-02-16T13:42:10;29.58;;;19.05;;
81176;SDS011;74095;48.270;14.200;2024-02-16T13:44:37;29.30;;;20.35;;
81176;SDS011;74095;48.270;14.200;2024-02-16T13:47:03;28.02;;;17.95;;
81176;SDS011;74095;48.270;14.200;2024-02-16T13:49:29;22.90;;;14.68;;
81176;SDS011;74095;48.270;14.200;2024-02-16T13:51:55;27.33;;;18.13;;
81176;SDS011;74095;48.270;14.200;2024-02-16T13:54:24;29.92;;;19.55;;
81176;SDS011;74095;48.270;14.200;2024-02-16T13:56:51;29.67;;;19.65;;
81176;SDS011;74095;48.270;14.200;2024-02-16T13:59:17;31.23;;;19.83;;
81176;SDS011;74095;48.270;14.200;2024-02-16T14:01:42;32.42;;;23.77;;
81176;SDS011;74095;48.270;14.200;2024-02-16T14:04:08;32.30;;;20.00;;
81176;SDS011;74095;48.270;14.200;2024-02-16T14:06:34;28.92;;;18.33;;
81176;SDS011;74095;48.270;14.200;2024-02-16T14:09:01;29.40;;;18.50;;
81176;SDS011;74095;48.270;14.200;2024-02-16T14:11:34;29.58;;;19.88;;
81176;SDS011;74095;48.270;14.200;2024-02-16T14:14:01;27.08;;;18.27;;
81176;SDS011;74095;48.270;14.200;2024-02-16T14:16:27;29.67;;;18.30;;
81176;SDS011;74095;48.270;14.200;2024-02-16T14:18:53;29.40;;;20.02;;
81176;SDS011;74095;48.270;14.200;2024-02-16T14:21:19;31.10;;;19.35;;
81176;SDS011;74095;48.270;14.200;2024-02-16T14:23:45;32.83;;;22.08;;
81176;SDS011;74095;48.270;14.200;2024-02-16T14:26:11;31.58;;;20.63;;